This is the latest recevied weather packets stored in our database for station/object WX7FGZ-3. If no packets are shown the sender has not sent any weather packets the latest 10 day(s).
| Time | Temp. | Humidity | Pressure | Rain* | Wind** | Luminosity | Snow |
|---|---|---|---|---|---|---|---|
| 1778071315 | 2.78° C | 78% | 1012 hPa | 0 mm | - | - | - |
| 1778071014 | 2.78° C | 78% | 1012 hPa | 0 mm | - | - | - |
| 1778070414 | 2.78° C | 78% | 1011.8 hPa | 0 mm | - | - | - |
| 1778069813 | 2.78° C | 77% | 1011.6 hPa | 0 mm | - | - | - |
| 1778069513 | 3.33° C | 77% | 1011.5 hPa | 0 mm | - | - | - |
| 1778069391 | 8.89° C | 55% | 1005.2 hPa | 0 mm | - | - | - |
| 1778069349 | 8.89° C | 55% | 1005.2 hPa | 0 mm | - | - | - |
| 1778069339 | 8.89° C | 57% | 1005.2 hPa | 0 mm | - | - | - |
| 1778069213 | 3.33° C | 77% | 1011.5 hPa | 0 mm | - | - | - |
| 1778068912 | 3.33° C | 76% | 1011.5 hPa | 0 mm | - | - | - |
| 1778068312 | 3.33° C | 76% | 1011.6 hPa | 0 mm | - | - | - |
| 1778067110 | 3.33° C | 76% | 1011.4 hPa | 0 mm | - | - | - |
| 1778066510 | 3.33° C | 76% | 1011.3 hPa | 0 mm | - | - | - |
| 1778066209 | 3.33° C | 77% | 1011.2 hPa | 0 mm | - | - | - |
| 1778065609 | 3.33° C | 77% | 1011.2 hPa | 0 mm | - | - | - |
| 1778065008 | 3.33° C | 78% | 1011 hPa | 0 mm | - | - | - |
| 1778064408 | 2.78° C | 79% | 1011 hPa | 0 mm | - | - | - |
| 1778064108 | 2.78° C | 79% | 1010.9 hPa | 0 mm | - | - | - |
| 1778062907 | 2.78° C | 79% | 1010.7 hPa | 0 mm | - | - | - |
| 1778062306 | 3.33° C | 78% | 1010.8 hPa | 0 mm | - | - | - |
| 1778061105 | 3.33° C | 77% | 1010.7 hPa | 0 mm | - | - | - |
| 1778060804 | 3.33° C | 77% | 1010.7 hPa | 0 mm | - | - | - |
| 1778060504 | 3.33° C | 77% | 1010.7 hPa | 0 mm | - | - | - |
| 1778060204 | 3.33° C | 77% | 1010.8 hPa | 0 mm | - | - | - |
| 1778059903 | 3.33° C | 78% | 1010.6 hPa | 0 mm | - | - | - |
* Rain latest hour (hover to see other rain measurements)
** Current wind speed in m/s (hover to see current wind gust speed)